Time;durP1;ratioP1;P1;durP2;ratioP2;P2;SDS_P1;SDS_P2;PMS_P1;PMS_P2;Temp;Humidity;BMP_temperature;BMP_pressure;BME280_temperature;BME280_humidity;BME280_pressure;Samples;Min_cycle;Max_cycle;Signal;HPM_P1;HPM_P2
2023/07/07 00:02:13;;;;;;;6.90;5.00;;;;;;;13.19;71.72;99881.30;431920;1267;140391;-65
2023/07/07 00:12:16;;;;;;;4.90;4.10;;;;;;;12.96;71.88;99883.27;431428;1267;139636;-65
2023/07/07 00:22:20;;;;;;;8.20;5.20;;;;;;;12.79;72.40;99887.73;431202;1267;139149;-65
2023/07/07 00:32:23;;;;;;;6.40;5.00;;;;;;;12.65;72.90;99889.02;431094;1270;140363;-65
2023/07/07 00:42:26;;;;;;;9.70;5.80;;;;;;;12.56;73.57;99890.48;431321;1270;140327;-64
2023/07/07 00:52:30;;;;;;;8.20;5.00;;;;;;;12.44;73.61;99894.79;431440;1268;140451;-64
2023/07/07 01:02:33;;;;;;;6.00;5.40;;;;;;;12.31;74.18;99901.77;431563;1270;140510;-65
2023/07/07 01:12:37;;;;;;;5.10;4.40;;;;;;;12.21;74.81;99897.73;431890;1267;139609;-64
2023/07/07 01:23:09;;;;;;;9.40;5.60;;;;;;;12.13;74.62;99903.69;431953;1270;141732;-66
2023/07/07 01:33:16;;;;;;;7.80;4.50;;;;;;;12.03;74.93;99901.17;431555;1270;139434;-65
2023/07/07 01:43:25;;;;;;;8.60;5.20;;;;;;;11.96;75.78;99903.69;431641;1271;140535;-64
2023/07/07 01:53:31;;;;;;;8.00;4.40;;;;;;;11.86;76.20;99907.30;432659;1267;141958;-65
2023/07/07 02:03:34;;;;;;;6.10;4.80;;;;;;;11.75;75.97;99915.71;432969;1267;140167;-66
2023/07/07 02:13:38;;;;;;;6.00;4.80;;;;;;;11.64;75.94;99912.85;431765;1267;141293;-65
2023/07/07 02:23:42;;;;;;;6.20;4.90;;;;;;;11.57;76.43;99916.88;431505;1267;140219;-65
2023/07/07 02:33:45;;;;;;;7.10;5.30;;;;;;;11.43;76.38;99925.41;431243;1267;139322;-65
2023/07/07 02:43:48;;;;;;;7.40;5.10;;;;;;;11.36;76.81;99930.41;431185;1267;140271;-65
2023/07/07 02:53:51;;;;;;;5.70;5.10;;;;;;;11.40;77.36;99937.02;431145;1270;140506;-65
2023/07/07 03:03:56;;;;;;;8.50;4.80;;;;;;;11.55;77.46;99942.54;431493;1270;140368;-65
2023/07/07 03:14:00;;;;;;;12.00;9.40;;;;;;;11.75;77.36;99948.70;431291;1267;140624;-66
2023/07/07 03:24:03;;;;;;;6.90;5.40;;;;;;;12.19;77.19;99962.91;431280;1270;139772;-64
2023/07/07 03:34:07;;;;;;;6.20;5.00;;;;;;;13.74;75.40;99971.16;431377;1270;139897;-66
2023/07/07 03:44:10;;;;;;;6.20;5.00;;;;;;;14.67;72.75;99971.54;431746;1267;139465;-65
2023/07/07 03:54:13;;;;;;;7.20;5.10;;;;;;;14.82;71.27;99974.46;431611;1270;139871;-65
2023/07/07 04:04:16;;;;;;;5.60;4.20;;;;;;;15.69;71.90;99975.40;431826;1268;139440;-68
2023/07/07 04:14:20;;;;;;;11.10;4.60;;;;;;;22.71;65.53;99971.69;432055;1267;139367;-65
2023/07/07 04:24:23;;;;;;;6.80;4.90;;;;;;;28.56;54.22;99967.10;432239;1268;140333;-65
2023/07/07 04:34:27;;;;;;;13.20;7.40;;;;;;;32.79;45.11;99971.09;432583;1268;138366;-65
2023/07/07 04:44:30;;;;;;;9.80;6.10;;;;;;;36.20;38.58;99978.33;431929;1270;140144;-65
2023/07/07 04:54:35;;;;;;;4.80;4.00;;;;;;;38.41;33.59;99996.92;432073;1270;138412;-64
2023/07/07 05:04:38;;;;;;;6.20;3.90;;;;;;;39.83;30.43;100011.44;431524;1270;139819;-64
2023/07/07 05:14:41;;;;;;;4.50;3.50;;;;;;;39.01;27.88;100015.60;431528;1267;140585;-65
2023/07/07 05:24:44;;;;;;;4.80;3.60;;;;;;;35.59;28.50;100022.27;432184;1267;141316;-64
2023/07/07 05:34:50;;;;;;;5.70;2.40;;;;;;;37.72;27.83;100025.16;431926;1268;138937;-64
2023/07/07 05:44:53;;;;;;;3.10;2.20;;;;;;;40.58;24.70;100028.74;431706;1267;139456;-63
2023/07/07 05:54:57;;;;;;;5.00;2.40;;;;;;;36.01;25.19;100027.49;430899;1268;139883;-62
2023/07/07 06:05:00;;;;;;;2.40;1.70;;;;;;;31.27;28.23;100037.42;432876;1270;139395;-64
2023/07/07 06:15:05;;;;;;;4.00;2.50;;;;;;;29.68;29.74;100046.09;431277;1270;140269;-63
2023/07/07 06:25:09;;;;;;;5.30;3.50;;;;;;;27.54;31.95;100056.92;430822;1267;139880;-62
2023/07/07 06:35:12;;;;;;;7.10;2.90;;;;;;;34.88;29.87;100061.62;431819;1268;139671;-64
2023/07/07 06:45:15;;;;;;;1.60;1.50;;;;;;;44.78;23.11;100066.48;432433;1270;139831;-72
2023/07/07 06:55:18;;;;;;;2.90;1.80;;;;;;;50.03;19.08;100064.86;433941;1267;138539;-73
2023/07/07 07:05:22;;;;;;;1.80;1.70;;;;;;;53.30;16.21;100061.81;434108;1268;138655;-68
2023/07/07 07:15:25;;;;;;;5.40;2.50;;;;;;;55.23;14.66;100063.48;434053;1270;139066;-73
2023/07/07 07:25:28;;;;;;;2.90;2.80;;;;;;;56.54;13.20;100067.88;433512;1267;139568;-74
2023/07/07 07:35:31;;;;;;;3.90;3.70;;;;;;;57.37;12.31;100066.77;433659;1269;139093;-73
2023/07/07 07:45:36;;;;;;;5.80;3.70;;;;;;;57.37;11.36;100081.54;434133;1268;139250;-71
2023/07/07 07:55:39;;;;;;;2.30;1.80;;;;;;;56.99;10.96;100088.79;433778;1270;139272;-71
2023/07/07 08:05:42;;;;;;;3.00;1.40;;;;;;;50.60;12.24;100078.99;433212;1268;138752;-63
2023/07/07 08:15:45;;;;;;;2.80;1.50;;;;;;;41.57;15.43;100080.48;431366;1268;138697;-67
2023/07/07 08:25:51;;;;;;;2.80;1.80;;;;;;;36.81;18.27;100091.74;431086;1270;139356;-61
2023/07/07 08:36:14;;;;;;;2.10;1.90;;;;;;;33.90;20.26;100096.23;431300;1268;139068;-61
2023/07/07 08:46:35;;;;;;;3.10;1.50;;;;;;;32.47;21.47;100102.10;431696;1268;138840;-61
2023/07/07 08:56:47;;;;;;;1.60;1.50;;;;;;;31.94;22.18;100105.30;431460;1268;138664;-61
2023/07/07 09:07:03;;;;;;;1.40;1.30;;;;;;;31.66;22.58;100109.38;431308;1268;141147;-61
2023/07/07 09:17:16;;;;;;;3.40;1.80;;;;;;;31.27;22.83;100104.87;431356;1270;138898;-62
2023/07/07 09:27:24;;;;;;;1.20;1.10;;;;;;;30.87;22.83;100102.70;431945;1268;140350;-62
2023/07/07 09:37:37;;;;;;;1.70;1.30;;;;;;;30.56;22.99;100109.90;431437;1270;139274;-67
2023/07/07 09:47:52;;;;;;;2.60;0.90;;;;;;;30.12;23.00;100103.54;431869;1270;139823;-65
2023/07/07 09:58:05;;;;;;;1.60;1.10;;;;;;;29.66;23.35;100102.55;432598;1270;138829;-66
2023/07/07 10:08:12;;;;;;;2.80;1.40;;;;;;;29.14;23.61;100107.84;431710;1270;139539;-65
2023/07/07 10:18:20;;;;;;;2.30;1.10;;;;;;;28.95;24.35;100111.05;431292;1273;139216;-67
2023/07/07 10:28:24;;;;;;;2.30;1.40;;;;;;;28.79;24.60;100114.05;431758;1271;139479;-64
2023/07/07 10:38:27;;;;;;;1.40;1.00;;;;;;;28.14;24.85;100113.21;431758;1268;139316;-66
2023/07/07 10:48:34;;;;;;;3.90;1.20;;;;;;;27.90;25.71;100108.65;431654;1267;139459;-65
2023/07/07 10:58:59;;;;;;;1.00;1.00;;;;;;;28.00;25.53;100108.33;431868;1270;138544;-66
2023/07/07 11:09:15;;;;;;;3.70;1.50;;;;;;;28.19;24.82;100107.70;431281;1272;139978;-65
2023/07/07 11:19:36;;;;;;;6.10;1.40;;;;;;;27.72;25.37;100093.73;432451;1273;140721;-65
2023/07/07 11:29:49;;;;;;;4.50;1.20;;;;;;;26.82;26.27;100097.47;432219;1268;140401;-65
2023/07/07 11:40:10;;;;;;;3.10;1.30;;;;;;;26.33;26.99;100090.81;431601;1273;138925;-65
2023/07/07 11:50:26;;;;;;;1.70;1.20;;;;;;;26.49;26.78;100090.52;432166;1271;139398;-65
2023/07/07 12:00:48;;;;;;;2.30;1.00;;;;;;;26.57;26.56;100086.64;431436;1267;139379;-65
2023/07/07 12:10:56;;;;;;;3.00;1.10;;;;;;;26.59;26.04;100078.63;431854;1270;139291;-65
2023/07/07 12:21:07;;;;;;;2.80;1.20;;;;;;;26.62;26.50;100077.77;431572;1270;139711;-65
2023/07/07 12:31:12;;;;;;;2.70;1.50;;;;;;;26.33;27.00;100073.69;431541;1270;139618;-66
2023/07/07 12:41:21;;;;;;;2.60;1.00;;;;;;;26.21;27.01;100063.93;432510;1270;139291;-65
2023/07/07 12:51:26;;;;;;;2.40;1.60;;;;;;;26.25;27.03;100051.41;431952;1271;140345;-65
2023/07/07 13:01:33;;;;;;;3.60;1.30;;;;;;;26.31;26.86;100051.92;431938;1267;140694;-66
2023/07/07 13:11:39;;;;;;;2.50;0.90;;;;;;;26.31;26.94;100051.02;433961;1270;140124;-71
2023/07/07 13:21:43;;;;;;;0.80;0.80;;;;;;;26.15;26.87;100049.69;434209;1270;140196;-76
2023/07/07 13:31:46;;;;;;;2.00;0.90;;;;;;;26.15;27.09;100051.89;431931;1272;138692;-78
2023/07/07 13:41:50;;;;;;;1.40;0.90;;;;;;;26.17;27.08;100053.33;434004;1267;139017;-71
2023/07/07 13:51:54;;;;;;;2.90;0.80;;;;;;;26.01;26.67;100048.82;433168;1267;138539;-72
2023/07/07 14:01:57;;;;;;;3.00;1.30;;;;;;;25.88;27.11;100043.33;431355;1268;138939;-71
2023/07/07 14:12:03;;;;;;;1.00;1.00;;;;;;;25.76;27.26;100050.55;431348;1267;139107;-68
2023/07/07 14:22:07;;;;;;;1.90;1.70;;;;;;;25.48;27.59;100044.35;431573;1268;138561;-67
2023/07/07 14:32:15;;;;;;;1.30;1.10;;;;;;;25.28;27.69;100036.17;433126;1270;139580;-67
2023/07/07 14:42:21;;;;;;;1.80;0.80;;;;;;;25.26;27.78;100034.41;431535;1272;139223;-67
2023/07/07 14:52:30;;;;;;;2.60;1.10;;;;;;;25.10;27.52;100034.52;431508;1272;138676;-62
2023/07/07 15:02:35;;;;;;;2.60;0.80;;;;;;;24.98;27.59;100031.42;430471;1267;139639;-61
2023/07/07 15:12:39;;;;;;;0.60;0.60;;;;;;;24.93;27.69;100024.12;431817;1267;139567;-61
2023/07/07 15:22:42;;;;;;;2.20;0.90;;;;;;;24.84;27.62;100015.88;431556;1267;139630;-61
2023/07/07 15:32:45;;;;;;;2.70;0.90;;;;;;;24.84;27.70;100015.67;431615;1273;140454;-63
2023/07/07 15:42:52;;;;;;;2.60;0.90;;;;;;;24.83;27.69;100017.80;432000;1271;140944;-61
2023/07/07 15:52:55;;;;;;;3.70;0.80;;;;;;;24.85;27.49;100025.02;431589;1268;139104;-62
2023/07/07 16:02:58;;;;;;;2.30;1.00;;;;;;;24.85;27.58;100023.45;431416;1273;138700;-62
2023/07/07 16:13:01;;;;;;;3.20;0.70;;;;;;;24.84;27.62;100024.17;432100;1271;139534;-62
2023/07/07 16:23:04;;;;;;;1.20;0.60;;;;;;;24.81;27.81;100022.51;431492;1267;138612;-61
2023/07/07 16:33:07;;;;;;;2.40;1.10;;;;;;;24.72;27.69;100020.09;431431;1270;139277;-61
2023/07/07 16:43:11;;;;;;;1.30;0.60;;;;;;;24.61;27.80;100015.30;431891;1267;139258;-61
2023/07/07 16:53:14;;;;;;;2.30;0.90;;;;;;;24.91;27.92;100017.59;431331;1270;138608;-62
2023/07/07 17:03:16;;;;;;;3.00;1.20;;;;;;;25.20;27.69;100017.04;431539;1270;140291;-62
2023/07/07 17:13:20;;;;;;;1.70;0.90;;;;;;;24.66;28.11;100013.89;431454;1270;138916;-61
2023/07/07 17:23:23;;;;;;;2.50;1.50;;;;;;;24.33;28.63;100016.74;431036;1269;138718;-62
2023/07/07 17:33:26;;;;;;;1.90;1.80;;;;;;;24.07;28.81;100020.71;431379;1267;138801;-67
2023/07/07 17:43:29;;;;;;;4.80;1.30;;;;;;;23.85;29.05;100022.66;431076;1267;139284;-67
2023/07/07 17:53:33;;;;;;;4.20;2.30;;;;;;;23.62;29.22;100032.31;431076;1267;139963;-68
2023/07/07 18:03:36;;;;;;;3.70;2.10;;;;;;;24.18;29.39;100034.06;431196;1271;138697;-68
2023/07/07 18:13:39;;;;;;;4.60;1.20;;;;;;;23.81;29.50;100033.30;431095;1267;139721;-67
2023/07/07 18:23:43;;;;;;;2.00;1.80;;;;;;;23.20;30.52;100035.92;431267;1268;138869;-69
2023/07/07 18:33:46;;;;;;;1.30;1.00;;;;;;;22.69;31.11;100035.38;436538;1267;139543;-68
2023/07/07 18:43:51;;;;;;;2.10;1.90;;;;;;;22.29;31.69;100040.02;431017;1271;140303;-67
2023/07/07 18:53:54;;;;;;;4.60;2.20;;;;;;;21.86;32.59;100048.19;431483;1267;139120;-68
2023/07/07 19:03:57;;;;;;;4.60;2.10;;;;;;;21.42;34.05;100055.16;431297;1267;138917;-67
2023/07/07 19:14:00;;;;;;;8.40;4.90;;;;;;;20.88;36.24;100059.23;432019;1270;139438;-68
2023/07/07 19:24:10;;;;;;;10.20;3.50;;;;;;;20.28;38.20;100064.66;432058;1268;139377;-67
2023/07/07 19:34:13;;;;;;;15.60;4.80;;;;;;;19.75;40.55;100075.05;432124;1267;139534;-67
2023/07/07 19:44:16;;;;;;;7.20;4.40;;;;;;;19.26;42.06;100076.02;432146;1267;138857;-68
2023/07/07 19:54:21;;;;;;;13.60;6.20;;;;;;;18.80;43.49;100075.41;432537;1267;138691;-67
2023/07/07 20:04:24;;;;;;;9.00;6.30;;;;;;;18.36;44.65;100077.26;431747;1270;139175;-68
2023/07/07 20:14:27;;;;;;;14.90;8.10;;;;;;;17.95;45.91;100073.02;432005;1267;139077;-68
2023/07/07 20:24:30;;;;;;;9.90;6.70;;;;;;;17.61;47.47;100080.14;431595;1268;140170;-67
2023/07/07 20:34:33;;;;;;;12.20;6.50;;;;;;;17.29;48.98;100086.16;431917;1267;139300;-67
2023/07/07 20:44:36;;;;;;;12.70;8.10;;;;;;;16.94;49.93;100085.70;431578;1270;138824;-67
2023/07/07 20:54:39;;;;;;;11.40;5.50;;;;;;;16.66;50.92;100089.72;431832;1267;138976;-68
2023/07/07 21:04:42;;;;;;;9.50;5.90;;;;;;;16.39;51.82;100106.76;432938;1267;138889;-68
2023/07/07 21:14:45;;;;;;;7.60;5.00;;;;;;;16.10;52.78;100116.23;431889;1267;139390;-68
2023/07/07 21:24:48;;;;;;;9.70;6.20;;;;;;;15.89;53.85;100118.79;432331;1268;140588;-68
2023/07/07 21:34:51;;;;;;;13.60;6.70;;;;;;;15.62;54.33;100125.41;432245;1268;138952;-68
2023/07/07 21:44:55;;;;;;;13.00;7.10;;;;;;;15.37;55.34;100124.61;431793;1267;141437;-67
2023/07/07 21:54:58;;;;;;;9.90;5.70;;;;;;;15.18;56.43;100125.14;432111;1266;139320;-67
2023/07/07 22:05:01;;;;;;;15.10;6.60;;;;;;;14.97;57.49;100129.88;431912;1270;138581;-68
2023/07/07 22:15:07;;;;;;;19.60;7.00;;;;;;;14.78;58.31;100131.77;431405;1268;140076;-68
2023/07/07 22:25:10;;;;;;;12.40;6.50;;;;;;;14.55;58.91;100138.02;431487;1270;140143;-68
2023/07/07 22:35:13;;;;;;;9.90;5.30;;;;;;;14.36;59.83;100134.41;432341;1267;140864;-67
2023/07/07 22:45:17;;;;;;;9.80;6.40;;;;;;;14.19;60.50;100134.53;432029;1268;140904;-67
2023/07/07 22:55:25;;;;;;;8.60;6.90;;;;;;;14.03;60.97;100130.02;431625;1267;140604;-68
2023/07/07 23:05:29;;;;;;;15.40;6.70;;;;;;;13.83;61.77;100124.70;431625;1270;139685;-67
2023/07/07 23:15:32;;;;;;;8.80;5.00;;;;;;;13.68;62.67;100125.90;431664;1268;139675;-68
2023/07/07 23:25:35;;;;;;;8.40;4.60;;;;;;;13.52;63.30;100130.30;431264;1267;139826;-67
2023/07/07 23:35:42;;;;;;;7.80;4.60;;;;;;;13.35;63.67;100126.14;431488;1266;141342;-67
2023/07/07 23:45:46;;;;;;;5.90;4.80;;;;;;;13.19;64.40;100117.71;431399;1270;140673;-67
2023/07/07 23:55:50;;;;;;;9.60;4.80;;;;;;;13.04;64.87;100110.79;431266;1270;139647;-67
